Seaview, Washington
Current Conditions -  °F | °C
As of 3:55 PM on Saturday 20 Dec 2014 (Local Time) from KAST Reporting Station
Light Rain Light Rain  
Wind Chill: 56°   Ceiling: 600
Heat Index: 56°   Visibility: 7mi
Dew Point: 54°   Wind: 18mph
Humidity: 93%   Direction: 220°SW
Pressure: 29.56"   Gusts: 30mph
Location:  46.33°N, 124.05°W
Report Text: KAST 202355Z AUTO 22016G26KT 7SM -RA BKN006 OVC010 13/12 A2956 RMK AO2 PK WND 24033/2322 SLP008 P0004 60042 T01330122 10133 20133 53002 $
Loading
Personal Weather Stations






























Interactive Weather Map New forecast layout! Learn more

10-Day Weather Forecast

Advertisements
Track Severe Weather on mobile